Time;durP1;ratioP1;P1;durP2;ratioP2;P2;SDS_P1;SDS_P2;PMS_P1;PMS_P2;Temp;Humidity;BMP_temperature;BMP_pressure;BME280_temperature;BME280_humidity;BME280_pressure;Samples;Min_cycle;Max_cycle;Signal;HPM_P1;HPM_P2
2022/06/02 00:02:01;;;;;;;9.40;8.50;;;;;;;;;;5036264;28;20179;-67
2022/06/02 00:04:32;;;;;;;11.63;8.07;;;;;;;;;;5036772;28;20268;-67
2022/06/02 00:07:08;;;;;;;9.73;8.63;;;;;;;;;;5036903;28;20274;-67
2022/06/02 00:09:41;;;;;;;8.93;7.97;;;;;;;;;;5036739;28;20182;-67
2022/06/02 00:12:12;;;;;;;9.05;8.10;;;;;;;;;;5036119;28;20182;-66
2022/06/02 00:14:45;;;;;;;10.60;9.00;;;;;;;;;;5036347;28;20651;-67
2022/06/02 00:17:21;;;;;;;9.00;8.10;;;;;;;;;;5036325;28;20521;-67
2022/06/02 00:19:50;;;;;;;11.90;10.70;;;;;;;;;;5036372;28;20193;-67
2022/06/02 00:22:20;;;;;;;10.55;8.80;;;;;;;;;;5035825;28;20198;-66
2022/06/02 00:24:53;;;;;;;10.20;8.50;;;;;;;;;;5036675;28;20220;-67
2022/06/02 00:27:23;;;;;;;13.02;9.10;;;;;;;;;;5036173;28;20191;-67
2022/06/02 00:29:56;;;;;;;10.48;9.32;;;;;;;;;;5037187;28;20199;-67
2022/06/02 00:32:28;;;;;;;11.10;10.10;;;;;;;;;;5035718;28;20266;-67
2022/06/02 00:35:03;;;;;;;10.45;9.13;;;;;;;;;;5036142;28;20199;-68
2022/06/02 00:37:34;;;;;;;12.52;10.32;;;;;;;;;;5036227;28;20324;-68
2022/06/02 00:40:02;;;;;;;11.23;10.05;;;;;;;;;;5035602;28;20229;-68
2022/06/02 00:42:36;;;;;;;11.07;9.95;;;;;;;;;;5035459;28;20201;-68
2022/06/02 00:45:05;;;;;;;10.55;9.35;;;;;;;;;;5036072;28;20215;-68
2022/06/02 00:47:39;;;;;;;12.60;11.20;;;;;;;;;;5035717;28;20210;-67
2022/06/02 00:50:09;;;;;;;10.50;9.40;;;;;;;;;;5035477;28;20274;-68
2022/06/02 00:52:41;;;;;;;11.98;9.55;;;;;;;;;;5035608;28;20194;-68
2022/06/02 00:58:05;;;;;;;10.88;9.75;;;;;;;;;;5035438;28;20178;-67
2022/06/02 01:00:36;;;;;;;11.70;10.60;;;;;;;;;;5035930;28;20249;-68
2022/06/02 01:03:08;;;;;;;10.52;9.43;;;;;;;;;;5035081;28;20203;-69
2022/06/02 01:05:40;;;;;;;11.55;10.35;;;;;;;;;;5035492;28;20688;-67
2022/06/02 01:08:12;;;;;;;11.02;9.85;;;;;;;;;;5035458;28;20184;-67
2022/06/02 01:10:47;;;;;;;13.52;11.13;;;;;;;;;;5035995;28;20194;-67
2022/06/02 01:13:25;;;;;;;11.95;10.77;;;;;;;;;;5034369;28;20180;-66
2022/06/02 01:15:57;;;;;;;10.32;9.30;;;;;;;;;;5035709;28;20195;-68
2022/06/02 01:18:30;;;;;;;13.10;10.70;;;;;;;;;;5034877;28;20188;-68
2022/06/02 01:21:03;;;;;;;11.73;10.48;;;;;;;;;;5035348;28;20188;-68
2022/06/02 01:23:43;;;;;;;13.48;12.00;;;;;;;;;;5034822;28;20637;-68
2022/06/02 01:26:37;;;;;;;13.90;11.43;;;;;;;;;;5034749;28;20191;-68
2022/06/02 01:29:13;;;;;;;13.40;11.80;;;;;;;;;;5035055;28;20185;-68
2022/06/02 01:31:48;;;;;;;12.48;10.38;;;;;;;;;;5034700;28;20192;-67
2022/06/02 01:34:28;;;;;;;12.55;10.43;;;;;;;;;;5034874;28;20530;-67
2022/06/02 01:37:01;;;;;;;13.55;11.55;;;;;;;;;;5034905;28;20226;-68
2022/06/02 01:39:35;;;;;;;21.02;11.65;;;;;;;;;;5034485;28;20279;-68
2022/06/02 01:42:09;;;;;;;11.70;10.60;;;;;;;;;;5034791;28;20192;-68
2022/06/02 01:44:42;;;;;;;13.32;11.93;;;;;;;;;;5034291;28;20210;-68
2022/06/02 01:47:15;;;;;;;12.93;11.65;;;;;;;;;;5034758;28;20220;-68
2022/06/02 01:49:51;;;;;;;13.10;11.80;;;;;;;;;;5034698;28;20183;-68
2022/06/02 01:52:28;;;;;;;13.10;11.80;;;;;;;;;;5034277;28;20281;-68
2022/06/02 01:55:03;;;;;;;15.35;11.27;;;;;;;;;;5034035;28;20198;-67
2022/06/02 01:57:37;;;;;;;14.35;12.85;;;;;;;;;;5034844;28;20183;-68
2022/06/02 02:00:08;;;;;;;13.15;11.75;;;;;;;;;;5034756;28;20543;-67
2022/06/02 02:02:42;;;;;;;13.25;11.95;;;;;;;;;;5034393;28;20273;-68
2022/06/02 02:05:18;;;;;;;13.98;12.50;;;;;;;;;;5034596;28;20253;-67
2022/06/02 02:07:53;;;;;;;12.68;11.38;;;;;;;;;;5034467;28;20288;-67
2022/06/02 02:10:26;;;;;;;14.73;13.05;;;;;;;;;;5034173;28;20187;-67
2022/06/02 02:12:59;;;;;;;14.52;12.77;;;;;;;;;;5033756;28;20195;-67
2022/06/02 02:15:32;;;;;;;14.95;13.40;;;;;;;;;;5034155;28;20195;-68
2022/06/02 02:18:14;;;;;;;15.27;12.55;;;;;;;;;;5033923;28;20182;-67
2022/06/02 02:20:46;;;;;;;14.23;12.20;;;;;;;;;;5031227;28;20238;-68
2022/06/02 02:23:20;;;;;;;14.73;11.15;;;;;;;;;;5034031;28;20205;-67
2022/06/02 02:25:51;;;;;;;15.70;14.10;;;;;;;;;;5033786;28;20221;-68
2022/06/02 02:28:20;;;;;;;17.17;14.38;;;;;;;;;;5034270;28;20260;-68
2022/06/02 02:30:55;;;;;;;15.73;13.65;;;;;;;;;;5034288;28;20205;-67
2022/06/02 02:33:28;;;;;;;16.05;14.25;;;;;;;;;;5034162;28;20187;-67
2022/06/02 02:36:01;;;;;;;17.52;14.23;;;;;;;;;;5033853;28;20679;-67
2022/06/02 02:38:32;;;;;;;16.60;13.70;;;;;;;;;;5034169;28;20194;-67
2022/06/02 02:41:02;;;;;;;14.73;12.50;;;;;;;;;;5033397;28;20641;-68
2022/06/02 02:43:32;;;;;;;17.15;13.73;;;;;;;;;;5034000;28;20190;-68
2022/06/02 02:46:04;;;;;;;16.50;13.63;;;;;;;;;;5033511;28;20222;-68
2022/06/02 02:48:38;;;;;;;16.63;15.02;;;;;;;;;;5033437;28;20201;-68
2022/06/02 02:51:11;;;;;;;15.90;14.27;;;;;;;;;;5033745;28;20190;-68
2022/06/02 02:53:42;;;;;;;15.55;13.50;;;;;;;;;;5033854;28;20199;-67
2022/06/02 02:56:14;;;;;;;17.25;14.10;;;;;;;;;;5033709;28;20245;-67
2022/06/02 02:58:43;;;;;;;16.17;14.23;;;;;;;;;;5033590;28;20620;-67
2022/06/02 03:01:12;;;;;;;18.42;15.30;;;;;;;;;;5033530;28;20194;-68
2022/06/02 03:03:43;;;;;;;19.27;16.05;;;;;;;;;;5033024;28;20660;-69
2022/06/02 03:06:20;;;;;;;18.75;16.02;;;;;;;;;;5032920;28;20223;-68
2022/06/02 03:08:51;;;;;;;19.58;15.98;;;;;;;;;;5032997;28;20185;-68
2022/06/02 03:11:27;;;;;;;18.83;15.48;;;;;;;;;;5033633;28;20269;-67
2022/06/02 03:14:00;;;;;;;24.00;16.13;;;;;;;;;;5033078;28;20194;-67
2022/06/02 03:16:28;;;;;;;20.83;16.10;;;;;;;;;;5033796;28;20190;-68
2022/06/02 03:19:03;;;;;;;19.05;15.85;;;;;;;;;;5033121;28;20645;-67
2022/06/02 03:21:34;;;;;;;19.25;16.00;;;;;;;;;;5033751;28;20186;-67
2022/06/02 03:24:20;;;;;;;20.63;16.58;;;;;;;;;;5033298;28;20194;-67
2022/06/02 03:26:52;;;;;;;17.85;15.95;;;;;;;;;;5033326;28;20198;-68
2022/06/02 03:29:24;;;;;;;21.55;17.52;;;;;;;;;;5032803;28;20648;-68
2022/06/02 03:31:56;;;;;;;22.88;18.25;;;;;;;;;;5033210;28;20277;-67
2022/06/02 03:34:27;;;;;;;21.20;18.10;;;;;;;;;;5033224;28;20198;-67
2022/06/02 03:37:14;;;;;;;21.30;17.58;;;;;;;;;;5036369;28;20321;-68
2022/06/02 03:39:51;;;;;;;20.33;17.05;;;;;;;;;;5030642;28;20298;-67
2022/06/02 03:42:24;;;;;;;21.38;18.02;;;;;;;;;;5036761;28;20186;-68
2022/06/02 03:45:04;;;;;;;18.85;16.77;;;;;;;;;;5036453;28;20668;-68
2022/06/02 03:47:39;;;;;;;21.95;17.13;;;;;;;;;;5037520;28;20534;-68
2022/06/02 03:50:22;;;;;;;23.25;17.00;;;;;;;;;;5036636;28;20182;-68
2022/06/02 03:53:00;;;;;;;20.15;16.50;;;;;;;;;;5036901;28;20226;-69
2022/06/02 03:55:33;;;;;;;19.50;17.17;;;;;;;;;;5036876;28;20194;-69
2022/06/02 03:58:14;;;;;;;24.55;19.45;;;;;;;;;;5036455;28;20180;-68
2022/06/02 04:00:46;;;;;;;20.23;17.27;;;;;;;;;;5036967;28;20194;-68
2022/06/02 04:03:17;;;;;;;21.83;18.17;;;;;;;;;;5037108;28;20187;-68
2022/06/02 04:05:51;;;;;;;23.13;19.58;;;;;;;;;;5035688;28;20266;-67
2022/06/02 04:08:26;;;;;;;21.55;18.33;;;;;;;;;;5036330;28;20194;-69
2022/06/02 04:10:59;;;;;;;22.52;18.73;;;;;;;;;;5036278;28;20190;-68
2022/06/02 04:13:38;;;;;;;21.92;17.98;;;;;;;;;;5036151;28;20215;-68
2022/06/02 04:16:22;;;;;;;21.05;17.65;;;;;;;;;;5036294;28;20190;-69
2022/06/02 04:18:54;;;;;;;20.92;17.38;;;;;;;;;;5036338;28;20191;-69
2022/06/02 04:21:37;;;;;;;22.50;16.60;;;;;;;;;;5036344;28;20182;-70
2022/06/02 04:24:16;;;;;;;21.25;18.42;;;;;;;;;;5036414;28;20190;-69
2022/06/02 04:27:04;;;;;;;21.77;18.52;;;;;;;;;;5035620;28;20210;-68
2022/06/02 04:29:44;;;;;;;20.05;16.42;;;;;;;;;;5030267;28;20582;-68
2022/06/02 04:32:17;;;;;;;20.98;17.13;;;;;;;;;;5036035;28;20194;-68
2022/06/02 04:34:49;;;;;;;18.88;16.85;;;;;;;;;;5035471;28;20331;-68
2022/06/02 04:37:19;;;;;;;24.80;18.27;;;;;;;;;;5035375;28;20227;-68
2022/06/02 04:39:51;;;;;;;21.92;18.08;;;;;;;;;;5036251;28;20607;-68
2022/06/02 04:42:22;;;;;;;20.73;17.02;;;;;;;;;;5035803;28;20190;-68
2022/06/02 04:44:57;;;;;;;23.08;18.13;;;;;;;;;;5035936;28;20218;-68
2022/06/02 04:47:30;;;;;;;22.17;18.33;;;;;;;;;;5034393;28;20274;-68
2022/06/02 04:50:02;;;;;;;19.98;17.25;;;;;;;;;;5036297;28;20550;-68
2022/06/02 04:52:33;;;;;;;22.67;18.05;;;;;;;;;;5035882;28;20637;-68
2022/06/02 04:55:06;;;;;;;19.95;17.45;;;;;;;;;;5035602;28;20198;-68
2022/06/02 04:57:38;;;;;;;17.80;15.93;;;;;;;;;;5035960;28;20184;-68
2022/06/02 05:00:09;;;;;;;15.87;14.27;;;;;;;;;;5035634;28;20431;-68
2022/06/02 05:02:43;;;;;;;14.07;12.73;;;;;;;;;;5035426;28;20426;-68
2022/06/02 05:05:14;;;;;;;13.90;12.43;;;;;;;;;;5034813;28;21003;-68
2022/06/02 05:07:52;;;;;;;15.40;12.63;;;;;;;;;;5035443;28;20794;-68
2022/06/02 05:10:23;;;;;;;15.90;13.83;;;;;;;;;;5035608;28;20439;-68
2022/06/02 05:12:54;;;;;;;15.90;14.07;;;;;;;;;;5034877;28;20489;-68
2022/06/02 05:15:37;;;;;;;17.73;13.93;;;;;;;;;;5035380;28;20435;-68
2022/06/02 05:18:13;;;;;;;14.20;12.70;;;;;;;;;;5034803;28;20431;-67
2022/06/02 05:20:48;;;;;;;14.03;12.63;;;;;;;;;;5035073;28;20436;-66
2022/06/02 05:23:28;;;;;;;14.87;13.30;;;;;;;;;;5035186;28;20438;-66
2022/06/02 05:26:14;;;;;;;16.30;14.30;;;;;;;;;;5034873;28;20475;-66
2022/06/02 05:29:02;;;;;;;14.40;12.90;;;;;;;;;;5035257;28;20450;-66
2022/06/02 05:31:42;;;;;;;15.63;14.10;;;;;;;;;;5029130;28;20457;-66
2022/06/02 05:34:24;;;;;;;17.17;15.20;;;;;;;;;;5035380;28;20534;-66
2022/06/02 05:36:58;;;;;;;17.17;15.27;;;;;;;;;;5033252;28;20485;-65
2022/06/02 05:39:31;;;;;;;20.50;14.17;;;;;;;;;;5034521;28;20430;-65
2022/06/02 05:42:04;;;;;;;14.80;13.20;;;;;;;;;;5034814;28;20434;-66
2022/06/02 05:44:38;;;;;;;14.87;12.77;;;;;;;;;;5034823;28;20429;-65
2022/06/02 05:47:15;;;;;;;16.57;14.10;;;;;;;;;;5034729;28;20488;-66
2022/06/02 05:49:45;;;;;;;15.98;14.20;;;;;;;;;;5034899;28;20927;-66
2022/06/02 05:52:17;;;;;;;15.77;14.17;;;;;;;;;;5034872;28;20207;-66
2022/06/02 05:54:49;;;;;;;16.03;13.67;;;;;;;;;;5034676;28;20422;-66
2022/06/02 05:57:28;;;;;;;14.70;13.20;;;;;;;;;;5034334;28;20431;-66
2022/06/02 06:00:11;;;;;;;16.43;14.50;;;;;;;;;;5034499;28;20784;-66
2022/06/02 06:02:54;;;;;;;13.70;12.13;;;;;;;;;;5034310;28;20439;-66
2022/06/02 06:05:27;;;;;;;12.63;11.27;;;;;;;;;;5034311;28;20503;-67
2022/06/02 06:08:15;;;;;;;15.00;11.90;;;;;;;;;;5034023;28;20437;-67
2022/06/02 06:10:48;;;;;;;15.97;13.00;;;;;;;;;;5001564;28;20451;-67
2022/06/02 06:13:39;;;;;;;14.77;11.97;;;;;;;;;;5034399;28;20430;-66
2022/06/02 06:16:12;;;;;;;11.43;10.33;;;;;;;;;;5019306;28;20502;-66
2022/06/02 06:18:47;;;;;;;8.40;7.60;;;;;;;;;;5034680;28;20506;-66
2022/06/02 06:21:31;;;;;;;9.47;8.00;;;;;;;;;;5033822;28;20430;-66
2022/06/02 06:24:14;;;;;;;11.17;8.20;;;;;;;;;;5033543;28;20458;-66
2022/06/02 06:26:47;;;;;;;11.80;8.40;;;;;;;;;;5033937;28;20477;-66
2022/06/02 06:29:19;;;;;;;7.10;6.50;;;;;;;;;;5034577;28;20438;-67
2022/06/02 06:31:53;;;;;;;7.83;7.03;;;;;;;;;;5034029;28;20524;-66
2022/06/02 06:34:28;;;;;;;10.47;8.80;;;;;;;;;;5034320;28;20473;-66
2022/06/02 06:37:04;;;;;;;9.77;8.80;;;;;;;;;;5033942;28;20471;-66
2022/06/02 06:39:40;;;;;;;5.10;4.70;;;;;;;;;;5033464;28;20427;-66
2022/06/02 06:42:16;;;;;;;7.17;6.37;;;;;;;;;;5033857;28;20432;-66
2022/06/02 06:44:46;;;;;;;7.27;5.60;;;;;;;;;;5033681;28;20525;-66
2022/06/02 06:47:15;;;;;;;6.53;5.93;;;;;;;;;;5033460;28;20486;-66
2022/06/02 06:49:51;;;;;;;6.80;6.30;;;;;;;;;;5033191;28;20446;-67
2022/06/02 06:52:40;;;;;;;6.30;5.70;;;;;;;;;;5033132;28;20422;-66
2022/06/02 06:55:12;;;;;;;7.27;6.17;;;;;;;;;;5025927;28;20448;-66
2022/06/02 06:57:42;;;;;;;7.30;6.63;;;;;;;;;;5033777;28;20470;-66
2022/06/02 07:00:10;;;;;;;5.47;5.03;;;;;;;;;;5033471;28;20441;-67
2022/06/02 07:02:44;;;;;;;6.40;5.43;;;;;;;;;;5033165;28;20434;-67
2022/06/02 07:05:14;;;;;;;5.90;5.40;;;;;;;;;;5033343;28;20451;-67
2022/06/02 07:07:46;;;;;;;6.93;5.90;;;;;;;;;;5032957;28;20465;-67
2022/06/02 07:10:15;;;;;;;6.13;5.63;;;;;;;;;;5033476;28;20432;-66
2022/06/02 07:12:52;;;;;;;9.23;6.03;;;;;;;;;;5033363;28;20438;-66
2022/06/02 07:15:37;;;;;;;6.70;5.90;;;;;;;;;;5033385;28;20423;-66
2022/06/02 07:18:10;;;;;;;6.27;5.77;;;;;;;;;;5032914;28;20420;-65
2022/06/02 07:20:47;;;;;;;5.50;5.00;;;;;;;;;;5032956;28;20940;-66
2022/06/02 07:23:18;;;;;;;7.13;6.53;;;;;;;;;;5032902;28;20442;-65
2022/06/02 07:25:51;;;;;;;7.20;6.03;;;;;;;;;;5033362;28;20559;-66
2022/06/02 07:28:24;;;;;;;6.40;5.70;;;;;;;;;;5033528;28;20432;-65
2022/06/02 07:30:54;;;;;;;6.17;5.57;;;;;;;;;;5033551;28;20447;-66
2022/06/02 07:33:29;;;;;;;9.40;5.90;;;;;;;;;;5033099;28;20943;-66
2022/06/02 07:36:11;;;;;;;6.60;5.83;;;;;;;;;;5033510;28;20490;-66
2022/06/02 07:38:56;;;;;;;6.47;5.40;;;;;;;;;;5016640;28;20456;-67
2022/06/02 07:41:33;;;;;;;7.03;6.33;;;;;;;;;;5032876;28;20444;-66
2022/06/02 07:44:18;;;;;;;7.10;6.50;;;;;;;;;;5032685;28;20436;-66
2022/06/02 07:46:55;;;;;;;9.73;6.40;;;;;;;;;;5032403;28;20529;-66
2022/06/02 07:49:29;;;;;;;7.10;6.50;;;;;;;;;;5033081;28;20430;-66
2022/06/02 07:51:59;;;;;;;6.00;5.50;;;;;;;;;;5033594;28;20538;-66
2022/06/02 07:54:32;;;;;;;6.00;5.50;;;;;;;;;;5032563;28;20538;-65
2022/06/02 07:57:04;;;;;;;6.17;5.57;;;;;;;;;;5032565;28;20527;-65
2022/06/02 07:59:38;;;;;;;7.40;5.50;;;;;;;;;;5032926;28;20423;-66
2022/06/02 08:02:14;;;;;;;6.23;5.63;;;;;;;;;;5033115;28;20438;-65
2022/06/02 08:04:44;;;;;;;6.30;5.80;;;;;;;;;;5032901;28;20854;-65
2022/06/02 08:07:16;;;;;;;6.57;5.83;;;;;;;;;;5032927;28;20833;-65
2022/06/02 08:09:50;;;;;;;6.80;6.20;;;;;;;;;;5032842;28;20524;-65
2022/06/02 08:12:22;;;;;;;9.30;6.03;;;;;;;;;;5032971;28;20442;-65
2022/06/02 08:15:00;;;;;;;8.83;5.30;;;;;;;;;;5032422;28;20435;-66
2022/06/02 08:17:30;;;;;;;7.20;5.33;;;;;;;;;;5033004;28;20455;-66
2022/06/02 08:20:04;;;;;;;6.13;5.47;;;;;;;;;;5032692;28;21020;-66
2022/06/02 08:22:33;;;;;;;5.97;4.70;;;;;;;;;;5033315;28;20479;-66
2022/06/02 08:25:11;;;;;;;6.27;4.70;;;;;;;;;;5036693;28;20758;-65
2022/06/02 08:27:45;;;;;;;5.93;5.33;;;;;;;;;;5035954;28;20973;-65
2022/06/02 08:30:15;;;;;;;6.13;5.57;;;;;;;;;;5036155;28;20444;-65
2022/06/02 08:32:50;;;;;;;6.57;5.43;;;;;;;;;;5035814;28;20943;-65
2022/06/02 08:35:21;;;;;;;5.80;4.83;;;;;;;;;;5035685;28;20448;-66
2022/06/02 08:38:01;;;;;;;4.53;3.90;;;;;;;;;;5036136;28;20437;-66
2022/06/02 08:40:43;;;;;;;4.23;3.90;;;;;;;;;;5035647;28;20448;-66
2022/06/02 08:43:31;;;;;;;4.83;4.43;;;;;;;;;;4993041;28;20452;-66
2022/06/02 08:46:17;;;;;;;8.70;4.37;;;;;;;;;;5030914;28;20487;-66
2022/06/02 08:48:59;;;;;;;4.70;4.30;;;;;;;;;;5035417;28;20444;-66
2022/06/02 08:51:45;;;;;;;4.37;4.03;;;;;;;;;;5035709;28;20945;-66
2022/06/02 08:54:26;;;;;;;6.07;4.53;;;;;;;;;;5035234;28;20527;-67
2022/06/02 08:57:14;;;;;;;5.20;4.10;;;;;;;;;;5035311;28;20920;-66
2022/06/02 09:00:04;;;;;;;4.67;4.27;;;;;;;;;;5035428;28;20900;-66
2022/06/02 09:02:47;;;;;;;4.57;4.17;;;;;;;;;;5035924;28;20432;-66
2022/06/02 09:05:35;;;;;;;4.60;4.20;;;;;;;;;;5019049;28;20550;-67
2022/06/02 09:08:12;;;;;;;5.20;4.60;;;;;;;;;;5035590;28;20475;-66
2022/06/02 09:10:44;;;;;;;4.70;4.30;;;;;;;;;;5035375;28;20438;-66
2022/06/02 09:13:26;;;;;;;4.60;4.20;;;;;;;;;;5035065;28;20934;-66
2022/06/02 09:16:04;;;;;;;4.10;3.80;;;;;;;;;;5034919;28;20438;-65
2022/06/02 09:18:51;;;;;;;5.17;4.40;;;;;;;;;;5035287;28;20514;-66
2022/06/02 09:21:22;;;;;;;4.57;3.60;;;;;;;;;;5034899;28;20437;-65
2022/06/02 09:24:00;;;;;;;4.87;4.40;;;;;;;;;;5035750;28;20445;-65
2022/06/02 09:26:31;;;;;;;5.20;4.70;;;;;;;;;;5035253;28;20466;-66
2022/06/02 09:29:14;;;;;;;5.83;5.10;;;;;;;;;;5034731;28;20427;-67
2022/06/02 09:31:51;;;;;;;4.80;4.40;;;;;;;;;;5033197;28;20458;-67
2022/06/02 09:34:28;;;;;;;5.10;4.70;;;;;;;;;;5034900;28;20544;-65
2022/06/02 09:37:20;;;;;;;4.60;4.20;;;;;;;;;;5034937;28;20519;-66
2022/06/02 09:40:00;;;;;;;4.27;3.97;;;;;;;;;;5034876;28;20509;-66
2022/06/02 09:42:50;;;;;;;4.50;4.00;;;;;;;;;;5035139;28;20518;-66
2022/06/02 09:45:27;;;;;;;4.00;3.70;;;;;;;;;;5034875;28;20441;-66
2022/06/02 09:48:12;;;;;;;4.80;4.40;;;;;;;;;;5034989;28;20476;-67
2022/06/02 09:50:46;;;;;;;4.03;3.63;;;;;;;;;;5018669;28;20461;-65
2022/06/02 09:53:23;;;;;;;4.13;3.57;;;;;;;;;;5034289;28;20468;-65
2022/06/02 09:56:00;;;;;;;5.13;3.90;;;;;;;;;;5034255;28;20945;-67
2022/06/02 09:58:38;;;;;;;3.50;3.30;;;;;;;;;;5034745;28;20431;-66
2022/06/02 10:01:11;;;;;;;4.87;4.40;;;;;;;;;;5034497;28;20429;-66
2022/06/02 10:04:00;;;;;;;4.97;4.43;;;;;;;;;;5034916;28;20434;-66
2022/06/02 10:06:35;;;;;;;5.07;4.57;;;;;;;;;;5034211;28;20777;-66
2022/06/02 10:09:09;;;;;;;5.07;3.90;;;;;;;;;;5034004;28;20428;-66
2022/06/02 10:11:44;;;;;;;3.70;3.40;;;;;;;;;;5034131;28;20431;-66
2022/06/02 10:14:29;;;;;;;4.07;3.77;;;;;;;;;;5034472;28;20435;-66
2022/06/02 10:17:15;;;;;;;6.83;3.90;;;;;;;;;;5033386;28;20529;-65
2022/06/02 10:19:55;;;;;;;6.00;3.33;;;;;;;;;;5034497;28;20534;-65
2022/06/02 10:22:26;;;;;;;4.43;3.20;;;;;;;;;;5034065;28;20460;-66
2022/06/02 10:25:01;;;;;;;4.10;3.80;;;;;;;;;;5033716;28;20446;-65
2022/06/02 10:27:46;;;;;;;5.30;4.77;;;;;;;;;;5033630;28;20560;-66
2022/06/02 10:30:24;;;;;;;4.30;4.00;;;;;;;;;;5033886;28;20422;-65
2022/06/02 10:33:09;;;;;;;3.67;3.37;;;;;;;;;;5033572;28;20963;-66
2022/06/02 10:35:54;;;;;;;4.40;4.10;;;;;;;;;;5033785;28;20454;-65
2022/06/02 10:38:28;;;;;;;3.80;3.50;;;;;;;;;;5034818;28;20431;-65
2022/06/02 10:41:03;;;;;;;3.80;3.20;;;;;;;;;;5033942;28;20430;-65
2022/06/02 10:43:48;;;;;;;4.43;3.50;;;;;;;;;;5033383;28;20432;-66
2022/06/02 10:46:33;;;;;;;5.87;4.37;;;;;;;;;;5032476;28;20427;-66
2022/06/02 10:49:08;;;;;;;4.07;3.73;;;;;;;;;;5033260;28;20447;-66
2022/06/02 10:51:54;;;;;;;2.57;2.47;;;;;;;;;;5033685;28;20430;-65
2022/06/02 10:54:37;;;;;;;3.30;3.10;;;;;;;;;;5033726;28;20443;-65
2022/06/02 10:57:23;;;;;;;3.47;3.10;;;;;;;;;;5033451;28;20433;-66
2022/06/02 11:00:03;;;;;;;4.13;2.97;;;;;;;;;;5034388;28;20429;-66
2022/06/02 11:03:00;;;;;;;6.90;3.40;;;;;;;;;;5033891;28;20779;-65
2022/06/02 11:05:49;;;;;;;4.40;4.00;;;;;;;;;;5033467;28;20447;-65
2022/06/02 11:08:36;;;;;;;4.37;3.80;;;;;;;;;;5026483;28;21084;-66
2022/06/02 11:11:11;;;;;;;4.30;3.90;;;;;;;;;;5033505;28;20444;-68
2022/06/02 11:14:03;;;;;;;3.57;3.30;;;;;;;;;;5033323;28;20418;-65
2022/06/02 11:16:49;;;;;;;3.60;3.30;;;;;;;;;;5032932;28;20520;-65
2022/06/02 11:19:41;;;;;;;4.20;3.80;;;;;;;;;;5033313;28;20442;-66
2022/06/02 11:22:26;;;;;;;4.13;3.70;;;;;;;;;;5033269;28;20423;-65
2022/06/02 11:25:14;;;;;;;5.77;4.10;;;;;;;;;;5033394;28;20798;-66
2022/06/02 11:28:08;;;;;;;4.47;4.07;;;;;;;;;;5032711;28;20476;-66
2022/06/02 11:30:50;;;;;;;5.50;3.20;;;;;;;;;;5033077;28;20429;-66
2022/06/02 11:33:32;;;;;;;8.13;4.10;;;;;;;;;;5033212;28;20433;-67
2022/06/02 11:36:08;;;;;;;4.00;3.60;;;;;;;;;;5029849;28;20838;-66
2022/06/02 11:38:49;;;;;;;3.90;3.60;;;;;;;;;;5033505;28;20790;-66
2022/06/02 11:41:37;;;;;;;5.17;3.60;;;;;;;;;;5033476;28;20427;-66
2022/06/02 11:44:09;;;;;;;4.57;3.63;;;;;;;;;;5028781;28;20466;-66
2022/06/02 11:47:00;;;;;;;5.67;3.30;;;;;;;;;;5033032;28;20523;-67
2022/06/02 11:49:42;;;;;;;5.03;3.73;;;;;;;;;;5033542;28;20440;-66
2022/06/02 11:52:24;;;;;;;3.90;3.40;;;;;;;;;;5032963;28;20517;-66
2022/06/02 11:55:00;;;;;;;4.03;3.73;;;;;;;;;;5032705;28;20957;-66
2022/06/02 11:57:42;;;;;;;4.43;3.73;;;;;;;;;;5035008;28;20445;-66
2022/06/02 12:00:30;;;;;;;5.07;4.20;;;;;;;;;;5037107;28;20531;-67
2022/06/02 12:03:11;;;;;;;4.70;3.97;;;;;;;;;;5003443;28;20536;-66
2022/06/02 12:06:02;;;;;;;5.67;4.67;;;;;;;;;;5037460;28;20466;-66
2022/06/02 12:08:40;;;;;;;4.67;4.30;;;;;;;;;;4980932;28;20491;-66
2022/06/02 12:11:21;;;;;;;5.37;4.70;;;;;;;;;;5036462;28;20439;-65
2022/06/02 12:13:56;;;;;;;4.37;3.97;;;;;;;;;;5036960;28;20434;-66
2022/06/02 12:16:28;;;;;;;5.50;4.83;;;;;;;;;;5036324;28;20431;-66
2022/06/02 12:19:05;;;;;;;7.13;4.43;;;;;;;;;;5036072;28;20931;-66
2022/06/02 12:21:40;;;;;;;5.13;4.63;;;;;;;;;;5036224;28;20428;-66
2022/06/02 12:24:32;;;;;;;6.23;4.43;;;;;;;;;;5035956;28;20513;-66
2022/06/02 12:27:14;;;;;;;6.73;5.40;;;;;;;;;;5036181;28;20492;-66
2022/06/02 12:29:53;;;;;;;4.60;4.13;;;;;;;;;;5033922;28;20453;-66
2022/06/02 12:32:28;;;;;;;4.60;4.30;;;;;;;;;;5036240;28;20464;-66
2022/06/02 12:35:09;;;;;;;5.20;4.80;;;;;;;;;;5035689;28;20489;-67
2022/06/02 12:37:55;;;;;;;5.20;4.67;;;;;;;;;;5036282;28;20836;-66
2022/06/02 12:40:29;;;;;;;4.60;4.07;;;;;;;;;;5035659;28;20455;-66
2022/06/02 12:43:11;;;;;;;4.53;4.13;;;;;;;;;;5035883;28;20792;-66
2022/06/02 12:45:45;;;;;;;5.67;4.33;;;;;;;;;;5002927;28;20968;-66
2022/06/02 12:48:29;;;;;;;4.60;4.20;;;;;;;;;;5035880;28;20475;-66
2022/06/02 12:51:03;;;;;;;5.50;5.00;;;;;;;;;;5035475;28;20428;-66
2022/06/02 12:53:55;;;;;;;5.37;5.00;;;;;;;;;;5035564;28;20428;-73
2022/06/02 12:56:47;;;;;;;4.83;4.43;;;;;;;;;;5035364;28;20426;-68
2022/06/02 12:59:29;;;;;;;4.30;3.90;;;;;;;;;;5036293;28;20930;-66
2022/06/02 13:02:05;;;;;;;4.23;3.80;;;;;;;;;;5035479;28;20792;-67
2022/06/02 13:04:47;;;;;;;4.13;3.83;;;;;;;;;;5035340;28;20451;-67
2022/06/02 13:07:31;;;;;;;5.13;4.73;;;;;;;;;;5035037;28;20444;-67
2022/06/02 13:10:07;;;;;;;4.13;3.83;;;;;;;;;;5035068;28;20421;-67
2022/06/02 13:12:49;;;;;;;4.97;4.47;;;;;;;;;;5034929;28;20440;-67
2022/06/02 13:15:21;;;;;;;5.33;4.83;;;;;;;;;;5040065;28;20451;-66
2022/06/02 13:18:01;;;;;;;4.97;4.47;;;;;;;;;;5054681;28;20438;-67
2022/06/02 13:20:47;;;;;;;4.50;4.07;;;;;;;;;;5055129;28;20438;-68
2022/06/02 13:23:35;;;;;;;4.23;3.90;;;;;;;;;;5055397;28;20444;-67
2022/06/02 13:26:15;;;;;;;5.17;4.67;;;;;;;;;;5029530;28;20500;-68
2022/06/02 13:28:59;;;;;;;5.27;4.77;;;;;;;;;;5054573;28;20999;-67
2022/06/02 13:31:37;;;;;;;4.33;4.03;;;;;;;;;;5055312;28;20771;-67
2022/06/02 13:34:34;;;;;;;6.20;4.40;;;;;;;;;;5054490;28;20441;-67
2022/06/02 13:37:10;;;;;;;4.10;3.90;;;;;;;;;;5054151;28;20493;-68
2022/06/02 13:39:56;;;;;;;5.23;4.60;;;;;;;;;;5054931;28;20444;-68
2022/06/02 13:42:35;;;;;;;4.20;3.90;;;;;;;;;;5055008;28;20437;-67
2022/06/02 13:45:20;;;;;;;6.20;4.37;;;;;;;;;;5054045;28;20775;-67
2022/06/02 13:48:08;;;;;;;4.60;4.20;;;;;;;;;;5045125;28;20568;-67
2022/06/02 13:50:53;;;;;;;4.90;4.40;;;;;;;;;;5029163;28;20821;-67
2022/06/02 13:53:37;;;;;;;5.23;4.07;;;;;;;;;;5047363;28;20947;-67
2022/06/02 13:59:23;;;;;;;4.97;4.57;;;;;;;;;;5054434;28;20402;-67
2022/06/02 14:02:11;;;;;;;8.03;6.23;;;;;;;;;;5054306;28;20432;-67
2022/06/02 14:04:43;;;;;;;7.60;6.80;;;;;;;;;;5036622;28;20457;-67
2022/06/02 14:07:21;;;;;;;4.13;3.83;;;;;;;;;;5054679;28;20439;-67
2022/06/02 14:09:56;;;;;;;4.20;3.67;;;;;;;;;;5054029;28;20538;-68
2022/06/02 14:12:37;;;;;;;5.23;4.73;;;;;;;;;;5054193;28;20431;-68
2022/06/02 14:15:22;;;;;;;4.30;3.97;;;;;;;;;;5053957;28;20862;-67
2022/06/02 14:18:02;;;;;;;3.93;3.57;;;;;;;;;;5053692;28;20906;-67
2022/06/02 14:20:35;;;;;;;4.80;4.27;;;;;;;;;;5053727;28;20895;-67
2022/06/02 14:23:07;;;;;;;3.90;3.60;;;;;;;;;;5053953;28;20743;-67
2022/06/02 14:25:40;;;;;;;5.90;3.73;;;;;;;;;;5053769;28;20429;-67
2022/06/02 14:28:17;;;;;;;3.47;3.17;;;;;;;;;;5053781;28;20480;-67
2022/06/02 14:30:45;;;;;;;4.80;4.30;;;;;;;;;;5053654;28;20437;-67
2022/06/02 14:33:16;;;;;;;4.30;3.90;;;;;;;;;;5053405;28;20794;-67
2022/06/02 14:35:46;;;;;;;4.10;3.67;;;;;;;;;;5053405;28;20480;-67
2022/06/02 14:38:28;;;;;;;4.23;3.40;;;;;;;;;;5053946;28;20454;-67
2022/06/02 14:40:59;;;;;;;4.43;3.60;;;;;;;;;;5051905;28;20508;-68
2022/06/02 14:43:44;;;;;;;4.10;3.27;;;;;;;;;;5053634;28;20428;-67
2022/06/02 14:46:15;;;;;;;4.10;3.80;;;;;;;;;;5052784;28;20475;-67
2022/06/02 14:48:50;;;;;;;3.97;3.70;;;;;;;;;;5053229;28;20475;-67
2022/06/02 14:51:19;;;;;;;3.43;3.23;;;;;;;;;;5053769;28;20439;-67
2022/06/02 14:53:54;;;;;;;3.73;3.10;;;;;;;;;;5053292;28;20444;-67
2022/06/02 14:56:29;;;;;;;4.10;3.70;;;;;;;;;;5053364;28;20426;-67
2022/06/02 14:59:07;;;;;;;6.17;5.00;;;;;;;;;;5053194;28;20471;-67
2022/06/02 15:01:38;;;;;;;4.10;3.70;;;;;;;;;;5052998;28;20921;-67
2022/06/02 15:04:19;;;;;;;3.80;2.80;;;;;;;;;;5052726;28;21161;-68
2022/06/02 15:06:53;;;;;;;3.53;3.27;;;;;;;;;;5053531;28;20435;-67
2022/06/02 15:09:29;;;;;;;4.40;4.00;;;;;;;;;;5053242;28;20465;-68
2022/06/02 15:12:07;;;;;;;2.70;2.50;;;;;;;;;;5053235;28;20794;-68
2022/06/02 15:14:43;;;;;;;3.70;3.40;;;;;;;;;;5053104;28;20423;-67
2022/06/02 15:17:21;;;;;;;3.20;2.90;;;;;;;;;;5053575;28;20788;-68
2022/06/02 15:20:10;;;;;;;2.70;2.50;;;;;;;;;;5052775;28;20532;-67
2022/06/02 15:22:45;;;;;;;2.80;2.70;;;;;;;;;;5052750;28;20523;-67
2022/06/02 15:25:17;;;;;;;4.10;3.37;;;;;;;;;;5052675;28;20434;-67
2022/06/02 15:27:56;;;;;;;3.17;2.63;;;;;;;;;;5052900;28;20493;-67
2022/06/02 15:30:44;;;;;;;5.43;3.10;;;;;;;;;;5053299;28;20838;-67
2022/06/02 15:33:32;;;;;;;2.73;2.10;;;;;;;;;;5031405;28;20439;-67
2022/06/02 15:36:10;;;;;;;4.07;3.00;;;;;;;;;;5031007;28;20562;-67
2022/06/02 15:38:50;;;;;;;2.73;2.30;;;;;;;;;;5057205;28;20994;-67